Time;durP1;ratioP1;P1;durP2;ratioP2;P2;SDS_P1;SDS_P2;PMS_P1;PMS_P2;Temp;Humidity;BMP_temperature;BMP_pressure;BME280_temperature;BME280_humidity;BME280_pressure;Samples;Min_cycle;Max_cycle;Signal;HPM_P1;HPM_P2
2023/12/03 00:02:20;;;;;;;2.60;0.90;;;;;;;;;;5051021;28;20079;-60
2023/12/03 00:04:46;;;;;;;1.90;0.60;;;;;;;;;;5049280;28;20043;-60
2023/12/03 00:07:12;;;;;;;1.27;0.50;;;;;;;;;;5056826;28;20476;-60
2023/12/03 00:09:38;;;;;;;2.43;0.67;;;;;;;;;;5070258;28;20036;-60
2023/12/03 00:12:08;;;;;;;1.37;0.67;;;;;;;;;;5070875;28;20355;-60
2023/12/03 00:14:35;;;;;;;1.50;0.83;;;;;;;;;;5070802;28;20090;-60
2023/12/03 00:17:01;;;;;;;1.47;0.97;;;;;;;;;;5071326;28;20036;-60
2023/12/03 00:19:27;;;;;;;1.87;0.80;;;;;;;;;;5070494;28;20539;-60
2023/12/03 00:21:53;;;;;;;2.00;1.13;;;;;;;;;;5070946;28;20124;-59
2023/12/03 00:24:20;;;;;;;1.20;0.90;;;;;;;;;;5070399;28;20115;-60
2023/12/03 00:26:46;;;;;;;1.73;0.70;;;;;;;;;;5070922;28;20021;-59
2023/12/03 00:29:12;;;;;;;1.13;0.70;;;;;;;;;;5070854;28;20461;-59
2023/12/03 00:31:38;;;;;;;1.37;0.70;;;;;;;;;;5071352;28;20107;-60
2023/12/03 00:34:04;;;;;;;0.97;0.67;;;;;;;;;;5070489;28;20069;-59
2023/12/03 00:36:30;;;;;;;2.17;0.90;;;;;;;;;;5070444;28;20085;-60
2023/12/03 00:38:56;;;;;;;2.50;0.77;;;;;;;;;;5070966;28;20100;-60
2023/12/03 00:41:23;;;;;;;1.00;0.53;;;;;;;;;;5070608;28;20025;-60
2023/12/03 00:43:49;;;;;;;2.40;0.90;;;;;;;;;;5070614;28;20040;-59
2023/12/03 00:46:21;;;;;;;1.27;0.80;;;;;;;;;;5070608;28;20396;-60
2023/12/03 00:48:48;;;;;;;1.70;0.70;;;;;;;;;;5070779;28;20055;-60
2023/12/03 00:51:14;;;;;;;1.73;0.70;;;;;;;;;;5070640;28;20094;-59
2023/12/03 00:53:41;;;;;;;1.47;0.70;;;;;;;;;;5069062;28;20091;-60
2023/12/03 00:56:08;;;;;;;1.60;0.53;;;;;;;;;;5050291;28;20029;-60
2023/12/03 00:58:34;;;;;;;1.30;0.60;;;;;;;;;;5050454;28;20033;-58
2023/12/03 01:01:00;;;;;;;0.70;0.50;;;;;;;;;;5050664;28;20056;-58
2023/12/03 01:03:26;;;;;;;1.47;0.93;;;;;;;;;;5049934;28;20555;-58
2023/12/03 01:05:52;;;;;;;1.13;0.67;;;;;;;;;;5065837;28;20037;-58
2023/12/03 01:08:18;;;;;;;0.73;0.63;;;;;;;;;;5064919;28;20071;-58
2023/12/03 01:10:44;;;;;;;1.33;0.50;;;;;;;;;;5070700;28;20085;-58
2023/12/03 01:13:10;;;;;;;0.70;0.50;;;;;;;;;;5071080;28;20436;-58
2023/12/03 01:15:36;;;;;;;1.60;0.60;;;;;;;;;;5057650;28;20025;-59
2023/12/03 01:18:02;;;;;;;1.40;0.87;;;;;;;;;;5057475;28;20025;-58
2023/12/03 01:20:28;;;;;;;0.83;0.50;;;;;;;;;;5072209;28;20033;-58
2023/12/03 01:22:54;;;;;;;1.47;0.70;;;;;;;;;;5076422;28;20028;-59
2023/12/03 01:25:20;;;;;;;1.57;1.00;;;;;;;;;;5072539;28;20090;-58
2023/12/03 01:27:46;;;;;;;1.60;0.70;;;;;;;;;;5055349;28;20029;-58
2023/12/03 01:30:12;;;;;;;2.80;1.20;;;;;;;;;;5056020;28;20033;-58
2023/12/03 01:32:38;;;;;;;1.47;0.80;;;;;;;;;;5074091;28;20039;-58
2023/12/03 01:35:05;;;;;;;1.07;0.90;;;;;;;;;;5076030;28;20381;-58
2023/12/03 01:37:31;;;;;;;3.07;0.93;;;;;;;;;;5076065;28;20025;-59
2023/12/03 01:39:57;;;;;;;3.10;1.53;;;;;;;;;;5076072;28;20028;-59
2023/12/03 01:42:24;;;;;;;1.00;0.70;;;;;;;;;;5064965;28;20424;-59
2023/12/03 01:44:51;;;;;;;0.90;0.80;;;;;;;;;;5055583;28;20085;-59
2023/12/03 01:47:17;;;;;;;1.47;1.30;;;;;;;;;;5055653;28;20035;-58
2023/12/03 01:49:44;;;;;;;3.93;1.13;;;;;;;;;;5055489;28;20054;-59
2023/12/03 01:52:11;;;;;;;1.83;1.10;;;;;;;;;;5055481;28;20025;-59
2023/12/03 01:54:38;;;;;;;1.53;0.80;;;;;;;;;;5055450;28;20108;-58
2023/12/03 01:57:04;;;;;;;2.90;1.00;;;;;;;;;;5055780;28;20110;-59
2023/12/03 01:59:31;;;;;;;1.60;1.20;;;;;;;;;;5075786;28;20086;-59
2023/12/03 02:01:57;;;;;;;2.07;0.90;;;;;;;;;;5083063;28;20039;-58
2023/12/03 02:04:23;;;;;;;1.80;1.17;;;;;;;;;;5060802;28;20118;-59
2023/12/03 02:06:49;;;;;;;1.93;1.10;;;;;;;;;;5093282;28;20024;-59
2023/12/03 02:09:16;;;;;;;2.97;1.20;;;;;;;;;;5092021;28;20052;-59
2023/12/03 02:11:43;;;;;;;2.27;1.10;;;;;;;;;;5073672;28;20035;-60
2023/12/03 02:14:10;;;;;;;1.43;1.10;;;;;;;;;;5072858;28;20095;-59
2023/12/03 02:16:36;;;;;;;0.87;0.83;;;;;;;;;;5086917;28;20024;-59
2023/12/03 02:19:02;;;;;;;1.83;1.10;;;;;;;;;;5094480;28;20493;-59
2023/12/03 02:21:29;;;;;;;4.03;1.17;;;;;;;;;;5093935;28;20020;-60
2023/12/03 02:23:55;;;;;;;2.27;1.50;;;;;;;;;;5062607;28;20028;-60
2023/12/03 02:26:21;;;;;;;2.57;1.10;;;;;;;;;;5054487;28;20032;-59
2023/12/03 02:28:49;;;;;;;3.00;1.47;;;;;;;;;;5054074;28;20107;-59
2023/12/03 02:31:15;;;;;;;2.27;1.30;;;;;;;;;;5054471;28;20029;-60
2023/12/03 02:33:44;;;;;;;2.07;1.40;;;;;;;;;;5053483;28;20029;-59
2023/12/03 02:36:11;;;;;;;2.23;1.23;;;;;;;;;;5053950;28;20062;-59
2023/12/03 02:38:37;;;;;;;2.10;1.10;;;;;;;;;;5054074;28;20025;-59
2023/12/03 02:41:03;;;;;;;2.00;1.40;;;;;;;;;;5053598;28;20021;-60
2023/12/03 02:43:29;;;;;;;2.30;1.40;;;;;;;;;;5053676;28;20114;-60
2023/12/03 02:45:54;;;;;;;2.73;1.73;;;;;;;;;;5053808;28;20033;-60
2023/12/03 02:48:20;;;;;;;2.17;1.33;;;;;;;;;;5053785;28;20025;-60
2023/12/03 02:50:46;;;;;;;1.70;1.27;;;;;;;;;;5053544;28;20074;-60
2023/12/03 02:53:12;;;;;;;1.90;1.37;;;;;;;;;;5053847;28;20029;-60
2023/12/03 02:55:38;;;;;;;2.30;1.40;;;;;;;;;;5054324;28;20036;-60
2023/12/03 02:58:04;;;;;;;1.97;1.43;;;;;;;;;;5054198;28;20025;-59
2023/12/03 03:00:30;;;;;;;3.17;1.60;;;;;;;;;;5054333;28;20025;-59
2023/12/03 03:02:56;;;;;;;3.23;1.50;;;;;;;;;;5054601;28;20021;-60
2023/12/03 03:05:22;;;;;;;2.37;2.07;;;;;;;;;;5054540;28;20504;-59
2023/12/03 03:07:48;;;;;;;2.03;1.57;;;;;;;;;;5054887;28;20079;-59
2023/12/03 03:10:17;;;;;;;2.60;1.87;;;;;;;;;;5065344;28;20107;-60
2023/12/03 03:12:43;;;;;;;3.83;2.00;;;;;;;;;;5074157;28;20028;-59
2023/12/03 03:15:09;;;;;;;2.43;1.80;;;;;;;;;;5073996;28;20059;-60
2023/12/03 03:17:35;;;;;;;3.97;1.83;;;;;;;;;;5074214;28;20024;-59
2023/12/03 03:20:01;;;;;;;2.27;2.07;;;;;;;;;;5073818;28;20021;-59
2023/12/03 03:22:27;;;;;;;2.10;1.57;;;;;;;;;;5073902;28;20025;-59
2023/12/03 03:24:53;;;;;;;3.27;2.10;;;;;;;;;;5073712;28;20032;-59
2023/12/03 03:27:19;;;;;;;2.10;1.90;;;;;;;;;;5073886;28;20466;-59
2023/12/03 03:29:45;;;;;;;2.47;1.90;;;;;;;;;;5073886;28;20099;-60
2023/12/03 03:32:11;;;;;;;1.83;1.73;;;;;;;;;;5073602;28;20445;-58
2023/12/03 03:34:37;;;;;;;4.50;2.33;;;;;;;;;;5073852;28;20021;-58
2023/12/03 03:37:05;;;;;;;2.90;2.30;;;;;;;;;;5073675;28;20048;-58
2023/12/03 03:39:31;;;;;;;3.60;2.60;;;;;;;;;;5073415;28;20066;-58
2023/12/03 03:41:57;;;;;;;2.07;1.83;;;;;;;;;;5073335;28;20424;-58
2023/12/03 03:44:23;;;;;;;2.33;2.10;;;;;;;;;;5072216;28;20124;-58
2023/12/03 03:46:49;;;;;;;3.07;2.10;;;;;;;;;;5073277;28;20362;-58
2023/12/03 03:49:15;;;;;;;2.27;1.80;;;;;;;;;;5073482;28;20032;-58
2023/12/03 03:51:41;;;;;;;2.53;2.17;;;;;;;;;;5073341;28;20074;-59
2023/12/03 03:54:07;;;;;;;2.77;2.23;;;;;;;;;;5073454;28;20056;-59
2023/12/03 03:56:33;;;;;;;2.43;2.20;;;;;;;;;;5073054;28;20027;-58
2023/12/03 03:58:59;;;;;;;2.40;2.20;;;;;;;;;;5073088;28;20027;-58
2023/12/03 04:01:25;;;;;;;2.43;2.23;;;;;;;;;;5071697;28;20103;-59
2023/12/03 04:03:51;;;;;;;3.47;2.30;;;;;;;;;;5072962;28;20021;-59
2023/12/03 04:06:17;;;;;;;5.30;2.60;;;;;;;;;;5072941;28;20031;-59
2023/12/03 04:08:43;;;;;;;3.00;2.70;;;;;;;;;;5071679;28;20481;-58
2023/12/03 04:11:09;;;;;;;2.87;2.50;;;;;;;;;;5073117;28;20024;-59
2023/12/03 04:13:37;;;;;;;2.37;2.17;;;;;;;;;;5072756;28;20016;-58
2023/12/03 04:16:03;;;;;;;3.00;2.53;;;;;;;;;;5072837;28;20461;-59
2023/12/03 04:18:29;;;;;;;3.73;2.40;;;;;;;;;;5072699;28;20025;-58
2023/12/03 04:20:55;;;;;;;3.80;2.50;;;;;;;;;;5072689;28;20028;-59
2023/12/03 04:23:21;;;;;;;3.13;2.60;;;;;;;;;;5072986;28;20032;-59
2023/12/03 04:25:47;;;;;;;3.37;3.00;;;;;;;;;;5062750;28;20033;-59
2023/12/03 04:28:13;;;;;;;4.63;3.20;;;;;;;;;;5052979;28;20031;-59
2023/12/03 04:30:39;;;;;;;4.27;2.93;;;;;;;;;;5052596;28;20108;-59
2023/12/03 04:33:05;;;;;;;3.83;2.77;;;;;;;;;;5052836;28;20074;-59
2023/12/03 04:35:31;;;;;;;3.27;2.97;;;;;;;;;;5051207;28;20028;-59
2023/12/03 04:37:57;;;;;;;4.13;3.03;;;;;;;;;;5052709;28;20024;-59
2023/12/03 04:40:23;;;;;;;4.50;3.53;;;;;;;;;;5052546;28;20056;-58
2023/12/03 04:42:49;;;;;;;3.33;3.03;;;;;;;;;;5052410;28;20064;-58
2023/12/03 04:45:15;;;;;;;3.43;2.70;;;;;;;;;;5052686;28;20041;-59
2023/12/03 04:47:41;;;;;;;3.40;2.73;;;;;;;;;;5052764;28;20056;-58
2023/12/03 04:50:07;;;;;;;3.57;3.23;;;;;;;;;;5052463;28;20057;-59
2023/12/03 04:52:33;;;;;;;3.00;2.80;;;;;;;;;;5052451;28;20025;-59
2023/12/03 04:54:59;;;;;;;3.30;3.00;;;;;;;;;;5057945;28;20116;-59
2023/12/03 04:57:25;;;;;;;3.20;2.97;;;;;;;;;;5071780;28;20043;-58
2023/12/03 04:59:51;;;;;;;3.10;2.90;;;;;;;;;;5072616;28;20374;-59
2023/12/03 05:02:17;;;;;;;6.73;3.70;;;;;;;;;;5072564;28;20033;-58
2023/12/03 05:04:43;;;;;;;3.57;3.27;;;;;;;;;;5070990;28;20133;-58
2023/12/03 05:07:09;;;;;;;3.40;3.10;;;;;;;;;;5054053;28;20091;-59
2023/12/03 05:09:39;;;;;;;3.80;3.40;;;;;;;;;;5072217;28;20469;-59
2023/12/03 05:12:05;;;;;;;3.53;3.10;;;;;;;;;;5072550;28;20090;-59
2023/12/03 05:14:32;;;;;;;3.87;3.10;;;;;;;;;;5072135;28;20374;-59
2023/12/03 05:16:58;;;;;;;3.33;3.03;;;;;;;;;;5072210;28;20055;-59
2023/12/03 05:19:24;;;;;;;3.27;2.97;;;;;;;;;;5072187;28;20028;-59
2023/12/03 05:21:50;;;;;;;5.33;3.23;;;;;;;;;;5072332;28;20040;-58
2023/12/03 05:24:16;;;;;;;3.53;3.23;;;;;;;;;;5071943;28;20461;-58
2023/12/03 05:26:54;;;;;;;7.50;3.57;;;;;;;;;;5072089;28;20381;-58
2023/12/03 05:29:21;;;;;;;3.43;3.13;;;;;;;;;;5071945;28;20021;-58
2023/12/03 05:31:47;;;;;;;3.10;2.80;;;;;;;;;;5072062;28;20024;-58
2023/12/03 05:34:13;;;;;;;3.03;2.70;;;;;;;;;;5071909;28;20024;-58
2023/12/03 05:36:39;;;;;;;3.33;2.90;;;;;;;;;;5071926;28;20086;-58
2023/12/03 05:39:06;;;;;;;3.33;2.80;;;;;;;;;;5072015;28;20443;-58
2023/12/03 05:41:37;;;;;;;3.70;2.80;;;;;;;;;;5072213;28;20115;-58
2023/12/03 05:44:04;;;;;;;3.33;3.03;;;;;;;;;;5071671;28;20584;-58
2023/12/03 05:46:30;;;;;;;4.10;3.30;;;;;;;;;;5071822;28;20048;-58
2023/12/03 05:48:56;;;;;;;3.70;2.97;;;;;;;;;;5071695;28;20036;-58
2023/12/03 05:51:22;;;;;;;4.13;2.70;;;;;;;;;;5070475;28;20021;-58
2023/12/03 05:53:48;;;;;;;4.77;2.83;;;;;;;;;;5071832;28;20079;-58
2023/12/03 05:56:14;;;;;;;3.67;2.50;;;;;;;;;;5071675;28;20033;-58
2023/12/03 05:58:40;;;;;;;3.47;3.13;;;;;;;;;;5071941;28;20040;-58
2023/12/03 06:01:06;;;;;;;4.87;3.37;;;;;;;;;;5071904;28;20560;-58
2023/12/03 06:03:32;;;;;;;3.43;3.13;;;;;;;;;;5071963;28;20519;-58
2023/12/03 06:05:58;;;;;;;3.13;2.83;;;;;;;;;;5071891;28;20040;-58
2023/12/03 06:08:24;;;;;;;7.97;3.30;;;;;;;;;;5073425;28;20017;-59
2023/12/03 06:10:50;;;;;;;3.83;3.37;;;;;;;;;;5075125;28;20037;-58
2023/12/03 06:13:16;;;;;;;3.50;3.00;;;;;;;;;;5073899;28;20035;-58
2023/12/03 06:15:42;;;;;;;4.23;2.77;;;;;;;;;;5073680;28;20445;-58
2023/12/03 06:18:09;;;;;;;3.50;2.70;;;;;;;;;;5074978;28;20025;-58
2023/12/03 06:20:35;;;;;;;4.07;3.40;;;;;;;;;;5075060;28;20025;-58
2023/12/03 06:23:01;;;;;;;6.37;3.00;;;;;;;;;;5074904;28;20556;-59
2023/12/03 06:25:27;;;;;;;4.83;3.00;;;;;;;;;;5074615;28;20040;-58
2023/12/03 06:27:53;;;;;;;2.87;2.57;;;;;;;;;;5074937;28;20028;-59
2023/12/03 06:30:19;;;;;;;4.17;2.87;;;;;;;;;;5074836;28;20079;-59
2023/12/03 06:32:45;;;;;;;3.30;2.93;;;;;;;;;;5074180;28;20035;-58
2023/12/03 06:35:14;;;;;;;3.80;3.00;;;;;;;;;;5056465;28;20115;-58
2023/12/03 06:37:40;;;;;;;4.93;3.10;;;;;;;;;;5054227;28;20044;-58
2023/12/03 06:40:06;;;;;;;4.27;3.13;;;;;;;;;;5054508;28;20470;-59
2023/12/03 06:42:32;;;;;;;3.30;3.00;;;;;;;;;;5054448;28;20025;-58
2023/12/03 06:44:58;;;;;;;4.67;3.23;;;;;;;;;;5054355;28;20504;-58
2023/12/03 06:47:24;;;;;;;4.07;3.30;;;;;;;;;;5054416;28;20083;-59
2023/12/03 06:49:50;;;;;;;4.63;3.10;;;;;;;;;;5054357;28;20025;-59
2023/12/03 06:52:16;;;;;;;5.23;3.30;;;;;;;;;;5052944;28;20394;-59
2023/12/03 06:54:42;;;;;;;5.33;3.23;;;;;;;;;;5054256;28;20025;-59
2023/12/03 06:57:08;;;;;;;4.60;3.27;;;;;;;;;;5056928;28;20080;-59
2023/12/03 06:59:34;;;;;;;4.63;3.30;;;;;;;;;;5071790;28;20103;-59
2023/12/03 07:02:00;;;;;;;5.40;3.00;;;;;;;;;;5069406;28;20076;-60
2023/12/03 07:04:26;;;;;;;6.00;3.40;;;;;;;;;;5059690;28;20075;-61
2023/12/03 07:06:52;;;;;;;5.07;3.13;;;;;;;;;;5071080;28;20469;-61
2023/12/03 07:09:18;;;;;;;6.37;3.33;;;;;;;;;;5069909;28;20452;-61
2023/12/03 07:11:44;;;;;;;3.77;2.83;;;;;;;;;;5070945;28;20037;-61
2023/12/03 07:14:10;;;;;;;4.97;3.20;;;;;;;;;;5071823;28;20033;-61
2023/12/03 07:16:36;;;;;;;4.03;3.37;;;;;;;;;;5071013;28;20028;-61
2023/12/03 07:19:02;;;;;;;3.77;3.20;;;;;;;;;;5071548;28;20043;-61
2023/12/03 07:21:28;;;;;;;4.67;3.30;;;;;;;;;;5071829;28;20111;-61
2023/12/03 07:23:54;;;;;;;5.73;3.23;;;;;;;;;;5071491;28;20095;-61
2023/12/03 07:26:20;;;;;;;4.77;2.87;;;;;;;;;;5070159;28;20033;-61
2023/12/03 07:28:47;;;;;;;5.67;3.50;;;;;;;;;;5071533;28;20032;-61
2023/12/03 07:31:13;;;;;;;4.13;3.00;;;;;;;;;;5071122;28;20028;-61
2023/12/03 07:33:39;;;;;;;3.90;3.50;;;;;;;;;;5071172;28;20497;-61
2023/12/03 07:36:05;;;;;;;5.63;4.30;;;;;;;;;;5071341;28;20036;-61
2023/12/03 07:38:31;;;;;;;4.00;3.20;;;;;;;;;;5071194;28;20426;-61
2023/12/03 07:40:57;;;;;;;3.73;3.30;;;;;;;;;;5070305;28;20111;-61
2023/12/03 07:43:24;;;;;;;5.93;3.00;;;;;;;;;;5070629;28;20063;-61
2023/12/03 07:45:50;;;;;;;6.10;3.27;;;;;;;;;;5071018;28;20131;-62
2023/12/03 07:48:16;;;;;;;3.93;3.00;;;;;;;;;;5069564;28;20470;-61
2023/12/03 07:50:42;;;;;;;5.80;3.90;;;;;;;;;;5056053;28;20041;-61
2023/12/03 07:53:08;;;;;;;5.80;4.43;;;;;;;;;;5050286;28;20078;-61
2023/12/03 07:55:34;;;;;;;4.97;3.70;;;;;;;;;;5048840;28;20502;-57
2023/12/03 07:58:00;;;;;;;4.23;3.40;;;;;;;;;;5058888;28;20052;-59
2023/12/03 08:00:26;;;;;;;3.93;3.53;;;;;;;;;;5065922;28;20063;-60
2023/12/03 08:02:52;;;;;;;5.07;3.43;;;;;;;;;;5059242;28;20047;-59
2023/12/03 08:05:18;;;;;;;3.50;2.97;;;;;;;;;;5054728;28;20470;-60
2023/12/03 08:07:44;;;;;;;4.10;3.20;;;;;;;;;;5058650;28;20033;-60
2023/12/03 08:10:10;;;;;;;3.03;2.73;;;;;;;;;;5052307;28;20059;-59
2023/12/03 08:12:36;;;;;;;3.87;3.13;;;;;;;;;;5052915;28;20475;-60
2023/12/03 08:15:02;;;;;;;4.63;3.00;;;;;;;;;;5052966;28;20115;-60
2023/12/03 08:17:28;;;;;;;3.77;3.20;;;;;;;;;;5072701;28;20044;-60
2023/12/03 08:19:54;;;;;;;4.53;3.20;;;;;;;;;;5073131;28;20044;-60
2023/12/03 08:22:20;;;;;;;3.07;2.80;;;;;;;;;;5069111;28;20035;-60
2023/12/03 08:24:46;;;;;;;3.97;3.30;;;;;;;;;;5052686;28;20041;-60
2023/12/03 08:27:12;;;;;;;3.43;3.00;;;;;;;;;;5051347;28;20027;-60
2023/12/03 08:29:38;;;;;;;3.03;2.63;;;;;;;;;;5052549;28;20120;-60
2023/12/03 08:32:04;;;;;;;4.63;2.93;;;;;;;;;;5051441;28;20405;-60
2023/12/03 08:34:30;;;;;;;5.27;3.53;;;;;;;;;;5052849;28;20108;-60
2023/12/03 08:36:56;;;;;;;5.17;3.20;;;;;;;;;;5068983;28;20028;-56
2023/12/03 08:39:22;;;;;;;3.23;2.87;;;;;;;;;;5072352;28;20098;-57
2023/12/03 08:41:48;;;;;;;4.37;3.30;;;;;;;;;;5065793;28;20025;-57
2023/12/03 08:44:14;;;;;;;4.07;3.10;;;;;;;;;;5067423;28;20049;-56
2023/12/03 08:46:40;;;;;;;3.37;3.07;;;;;;;;;;5053130;28;20105;-57
2023/12/03 08:49:06;;;;;;;4.73;3.50;;;;;;;;;;5052347;28;20370;-56
2023/12/03 08:51:32;;;;;;;4.40;3.97;;;;;;;;;;5052475;28;20036;-58
2023/12/03 08:53:58;;;;;;;4.93;3.27;;;;;;;;;;5052580;28;20040;-57
2023/12/03 08:56:24;;;;;;;4.63;3.40;;;;;;;;;;5052677;28;20028;-56
2023/12/03 08:58:50;;;;;;;4.07;3.30;;;;;;;;;;5060980;28;20028;-56
2023/12/03 09:01:16;;;;;;;4.33;3.33;;;;;;;;;;5070222;28;20487;-57
2023/12/03 09:03:43;;;;;;;4.90;3.80;;;;;;;;;;5065602;28;20035;-56
2023/12/03 09:06:09;;;;;;;3.93;3.43;;;;;;;;;;5071778;28;20430;-57
2023/12/03 09:08:35;;;;;;;4.53;3.23;;;;;;;;;;5072354;28;20557;-58
2023/12/03 09:11:01;;;;;;;3.77;3.37;;;;;;;;;;5072347;28;20055;-56
2023/12/03 09:13:27;;;;;;;4.57;3.87;;;;;;;;;;5072562;28;20099;-57
2023/12/03 09:15:56;;;;;;;4.60;3.77;;;;;;;;;;5072224;28;20087;-56
2023/12/03 09:18:22;;;;;;;4.13;3.60;;;;;;;;;;5072232;28;20021;-55
2023/12/03 09:20:48;;;;;;;3.63;3.13;;;;;;;;;;5072279;28;20075;-58
2023/12/03 09:23:14;;;;;;;4.53;3.40;;;;;;;;;;5072501;28;20051;-58
2023/12/03 09:25:40;;;;;;;5.83;3.60;;;;;;;;;;5072364;28;20418;-58
2023/12/03 09:28:06;;;;;;;3.93;3.23;;;;;;;;;;5072451;28;20070;-56
2023/12/03 09:30:32;;;;;;;3.97;3.30;;;;;;;;;;5072134;28;20024;-57
2023/12/03 09:32:58;;;;;;;3.90;2.93;;;;;;;;;;5072011;28;20363;-58
2023/12/03 09:35:29;;;;;;;4.67;3.70;;;;;;;;;;5071315;28;20028;-59
2023/12/03 09:37:55;;;;;;;6.83;3.33;;;;;;;;;;5072212;28;20020;-57
2023/12/03 09:40:21;;;;;;;3.37;3.07;;;;;;;;;;5071581;28;20115;-58
2023/12/03 09:42:47;;;;;;;5.97;3.20;;;;;;;;;;5072445;28;20484;-57
2023/12/03 09:45:16;;;;;;;4.00;2.97;;;;;;;;;;5075697;28;20409;-58
2023/12/03 09:47:44;;;;;;;3.70;3.10;;;;;;;;;;5074501;28;20093;-57
2023/12/03 09:50:10;;;;;;;5.90;4.03;;;;;;;;;;5075579;28;20035;-56
2023/12/03 09:52:36;;;;;;;5.27;3.30;;;;;;;;;;5075618;28;20020;-57
2023/12/03 09:55:03;;;;;;;6.23;4.67;;;;;;;;;;5075462;28;20081;-58
2023/12/03 09:57:30;;;;;;;5.07;3.73;;;;;;;;;;5075522;28;20516;-56
2023/12/03 10:00:01;;;;;;;3.80;3.13;;;;;;;;;;5075500;28;20021;-57
2023/12/03 10:02:29;;;;;;;4.97;3.03;;;;;;;;;;5076034;28;20029;-58
2023/12/03 10:04:58;;;;;;;3.30;3.00;;;;;;;;;;5075599;28;20428;-57
2023/12/03 10:07:27;;;;;;;3.00;2.70;;;;;;;;;;5074091;28;20428;-58
2023/12/03 10:09:53;;;;;;;3.33;2.70;;;;;;;;;;5075394;28;20032;-58
2023/12/03 10:12:20;;;;;;;4.30;3.53;;;;;;;;;;5075285;28;20039;-56
2023/12/03 10:14:46;;;;;;;3.70;2.70;;;;;;;;;;5075478;28;20060;-57
2023/12/03 10:17:21;;;;;;;3.23;2.50;;;;;;;;;;5073823;28;20189;-58
2023/12/03 10:19:47;;;;;;;3.90;2.57;;;;;;;;;;5074701;28;20433;-58
2023/12/03 10:22:13;;;;;;;5.13;3.00;;;;;;;;;;5075132;28;20103;-57
2023/12/03 10:24:49;;;;;;;4.50;2.43;;;;;;;;;;5075094;28;20170;-56
2023/12/03 10:27:15;;;;;;;5.40;3.13;;;;;;;;;;5075097;28;20029;-55
2023/12/03 10:29:41;;;;;;;4.87;3.20;;;;;;;;;;5073666;28;20087;-58
2023/12/03 10:32:09;;;;;;;4.30;2.90;;;;;;;;;;5074939;28;20035;-59
2023/12/03 10:34:36;;;;;;;5.87;3.13;;;;;;;;;;5075410;28;20028;-58
2023/12/03 10:37:02;;;;;;;6.53;4.03;;;;;;;;;;5063996;28;20021;-58
2023/12/03 10:39:28;;;;;;;5.03;3.30;;;;;;;;;;5054824;28;20047;-58
2023/12/03 10:41:55;;;;;;;3.87;3.17;;;;;;;;;;5054824;28;20064;-58
2023/12/03 10:44:23;;;;;;;4.40;3.20;;;;;;;;;;5054551;28;20045;-58
2023/12/03 10:46:50;;;;;;;4.53;3.20;;;;;;;;;;5054635;28;20013;-57
2023/12/03 10:49:16;;;;;;;4.10;3.00;;;;;;;;;;5053153;28;20390;-58
2023/12/03 10:51:43;;;;;;;4.97;3.83;;;;;;;;;;5054458;28;20025;-58
2023/12/03 10:54:09;;;;;;;4.77;3.73;;;;;;;;;;5054153;28;20025;-57
2023/12/03 10:56:35;;;;;;;5.67;3.37;;;;;;;;;;5054446;28;20540;-59
2023/12/03 10:59:03;;;;;;;4.10;3.17;;;;;;;;;;5054476;28;20025;-58
2023/12/03 11:01:30;;;;;;;4.70;4.03;;;;;;;;;;5053894;28;20025;-58
2023/12/03 11:03:56;;;;;;;6.63;4.93;;;;;;;;;;5056753;28;20021;-58
2023/12/03 11:06:23;;;;;;;7.30;3.70;;;;;;;;;;5053951;28;20043;-58
2023/12/03 11:08:52;;;;;;;3.93;3.03;;;;;;;;;;5054231;28;20051;-57
2023/12/03 11:11:20;;;;;;;5.27;3.27;;;;;;;;;;5054239;28;20091;-57
2023/12/03 11:13:47;;;;;;;4.53;2.80;;;;;;;;;;5054159;28;20033;-58
2023/12/03 11:16:14;;;;;;;4.87;2.60;;;;;;;;;;5054576;28;20032;-58
2023/12/03 11:18:43;;;;;;;5.07;2.93;;;;;;;;;;5054027;28;20033;-58
2023/12/03 11:21:14;;;;;;;5.43;2.27;;;;;;;;;;5054245;28;20483;-57
2023/12/03 11:23:57;;;;;;;4.43;2.50;;;;;;;;;;5054164;28;20111;-57
2023/12/03 11:26:25;;;;;;;6.87;2.87;;;;;;;;;;5054225;28;20359;-57
2023/12/03 11:28:51;;;;;;;4.03;2.80;;;;;;;;;;5053952;28;20017;-58
2023/12/03 11:31:17;;;;;;;6.70;3.33;;;;;;;;;;5054023;28;20032;-57
2023/12/03 11:33:56;;;;;;;3.47;3.03;;;;;;;;;;5063814;28;20424;-57
2023/12/03 11:36:34;;;;;;;3.20;2.90;;;;;;;;;;5064225;28;20477;-58
2023/12/03 11:39:01;;;;;;;3.53;2.60;;;;;;;;;;5067651;28;20012;-58
2023/12/03 11:41:31;;;;;;;6.47;3.13;;;;;;;;;;5077349;28;20461;-57
2023/12/03 11:44:17;;;;;;;5.07;3.03;;;;;;;;;;5087540;28;20121;-59
2023/12/03 11:46:43;;;;;;;;;;;;;;;;;;5073337;28;20021;-57
2023/12/03 11:49:09;;;;;;;6.68;3.50;;;;;;;;;;5071903;28;19920;-58
2023/12/03 11:51:34;;;;;;;5.73;3.10;;;;;;;;;;5067626;28;20025;-57
2023/12/03 11:54:01;;;;;;;3.87;2.67;;;;;;;;;;5071275;28;20089;-57
2023/12/03 11:56:28;;;;;;;7.57;3.27;;;;;;;;;;5083504;28;20133;-54
2023/12/03 11:58:57;;;;;;;3.43;2.73;;;;;;;;;;5064365;28;20496;-55
2023/12/03 12:01:23;;;;;;;3.83;2.80;;;;;;;;;;5072330;28;20048;-56
2023/12/03 12:03:49;;;;;;;3.30;2.87;;;;;;;;;;5069966;28;20120;-52
2023/12/03 12:06:24;;;;;;;2.53;2.30;;;;;;;;;;5068873;28;20120;-54
2023/12/03 12:08:50;;;;;;;4.10;2.67;;;;;;;;;;5070080;28;20415;-56
2023/12/03 12:11:16;;;;;;;3.22;2.53;;;;;;;;;;5066483;28;20056;-53
2023/12/03 12:13:45;;;;;;;4.63;2.38;;;;;;;;;;5065303;28;20028;-56
2023/12/03 12:16:12;;;;;;;6.47;3.03;;;;;;;;;;5060638;28;20017;-52
2023/12/03 12:18:38;;;;;;;8.60;3.67;;;;;;;;;;5060746;28;20028;-53
2023/12/03 12:21:08;;;;;;;5.00;3.30;;;;;;;;;;5071653;28;20031;-56
2023/12/03 12:23:35;;;;;;;5.40;3.83;;;;;;;;;;5088577;28;20027;-54
2023/12/03 12:26:01;;;;;;;3.53;2.30;;;;;;;;;;5081457;28;20043;-55
2023/12/03 12:28:27;;;;;;;3.10;2.58;;;;;;;;;;5075503;28;20051;-56
2023/12/03 12:30:55;;;;;;;3.75;3.40;;;;;;;;;;5071453;28;20474;-55
2023/12/03 12:33:21;;;;;;;2.90;2.47;;;;;;;;;;5057320;28;20029;-56
2023/12/03 12:35:51;;;;;;;3.30;2.83;;;;;;;;;;5071170;28;20086;-57
2023/12/03 12:38:17;;;;;;;4.50;2.30;;;;;;;;;;5072338;28;20024;-55
2023/12/03 12:40:53;;;;;;;3.55;2.15;;;;;;;;;;5064116;28;20028;-54
2023/12/03 12:43:22;;;;;;;2.30;2.08;;;;;;;;;;5062334;28;20405;-54
2023/12/03 12:45:48;;;;;;;2.17;1.95;;;;;;;;;;5063052;28;20040;-55
2023/12/03 12:48:29;;;;;;;3.10;2.53;;;;;;;;;;5062471;28;20016;-55
2023/12/03 12:50:56;;;;;;;7.40;3.70;;;;;;;;;;5065191;28;20355;-54
2023/12/03 12:53:47;;;;;;;4.88;3.58;;;;;;;;;;5069243;28;20020;-56
2023/12/03 12:56:14;;;;;;;2.92;2.55;;;;;;;;;;5055010;28;20024;-56
2023/12/03 12:58:40;;;;;;;3.95;2.78;;;;;;;;;;5061762;28;20012;-55
2023/12/03 13:01:06;;;;;;;3.90;2.17;;;;;;;;;;5069414;28;20047;-52
2023/12/03 13:03:32;;;;;;;4.13;2.47;;;;;;;;;;5072847;28;20021;-54
2023/12/03 13:05:58;;;;;;;3.80;2.50;;;;;;;;;;5079297;28;20033;-54
2023/12/03 13:08:24;;;;;;;4.45;3.35;;;;;;;;;;5055025;28;20029;-53
2023/12/03 13:10:51;;;;;;;6.05;3.92;;;;;;;;;;5080516;28;20513;-55
2023/12/03 13:13:17;;;;;;;6.60;3.40;;;;;;;;;;5071832;28;20017;-51
2023/12/03 13:15:43;;;;;;;4.15;3.67;;;;;;;;;;5057956;28;20540;-55
2023/12/03 13:18:09;;;;;;;4.72;3.13;;;;;;;;;;5068144;28;20111;-53
2023/12/03 13:20:35;;;;;;;6.45;3.97;;;;;;;;;;5081737;28;20032;-56
2023/12/03 13:23:01;;;;;;;5.63;4.63;;;;;;;;;;5071365;28;20374;-53
2023/12/03 13:25:27;;;;;;;3.70;3.22;;;;;;;;;;5076295;28;20029;-55
2023/12/03 13:27:53;;;;;;;3.75;2.67;;;;;;;;;;5063290;28;20081;-53
2023/12/03 13:30:19;;;;;;;4.57;3.35;;;;;;;;;;5063547;28;20031;-55
2023/12/03 13:32:45;;;;;;;4.10;2.90;;;;;;;;;;5076221;28;20027;-54
2023/12/03 13:35:15;;;;;;;6.15;3.72;;;;;;;;;;5077988;28;20027;-58
2023/12/03 13:37:43;;;;;;;4.28;3.00;;;;;;;;;;5092153;28;20056;-53
2023/12/03 13:40:10;;;;;;;4.57;2.85;;;;;;;;;;5072575;28;20031;-52
2023/12/03 13:42:36;;;;;;;5.30;3.65;;;;;;;;;;5078244;28;20063;-53
2023/12/03 13:45:05;;;;;;;4.15;3.20;;;;;;;;;;5082472;28;20036;-51
2023/12/03 13:47:32;;;;;;;4.82;3.08;;;;;;;;;;5060607;28;20029;-51
2023/12/03 13:49:58;;;;;;;5.05;3.25;;;;;;;;;;5056126;28;20052;-50
2023/12/03 13:52:24;;;;;;;4.03;3.35;;;;;;;;;;5063479;28;20490;-49
2023/12/03 13:54:50;;;;;;;3.50;3.20;;;;;;;;;;5068785;28;20119;-54
2023/12/03 13:57:16;;;;;;;5.88;3.08;;;;;;;;;;5055126;28;20056;-51
2023/12/03 13:59:42;;;;;;;3.30;3.00;;;;;;;;;;5062710;28;20418;-54
2023/12/03 14:02:12;;;;;;;5.07;3.03;;;;;;;;;;5066271;28;20029;-54
2023/12/03 14:04:38;;;;;;;3.40;3.10;;;;;;;;;;5078743;28;20040;-56
2023/12/03 14:07:04;;;;;;;5.78;2.95;;;;;;;;;;5081798;28;20028;-54
2023/12/03 14:09:30;;;;;;;4.20;3.08;;;;;;;;;;5063850;28;20040;-56
2023/12/03 14:11:56;;;;;;;3.97;3.13;;;;;;;;;;5062714;28;20024;-55
2023/12/03 14:14:22;;;;;;;3.63;3.28;;;;;;;;;;5066680;28;20166;-55
2023/12/03 14:16:52;;;;;;;4.75;3.33;;;;;;;;;;5073792;28;20029;-55
2023/12/03 14:19:18;;;;;;;3.83;2.95;;;;;;;;;;5059776;28;20029;-52
2023/12/03 14:21:44;;;;;;;3.35;3.03;;;;;;;;;;5060492;28;20398;-55
2023/12/03 14:24:10;;;;;;;5.28;2.95;;;;;;;;;;5072926;28;20032;-53
2023/12/03 14:26:36;;;;;;;3.65;2.67;;;;;;;;;;5055935;28;20032;-54
2023/12/03 14:29:02;;;;;;;3.15;2.60;;;;;;;;;;5057189;28;20418;-54
2023/12/03 14:31:31;;;;;;;4.15;2.90;;;;;;;;;;5055598;28;20037;-55
2023/12/03 14:33:57;;;;;;;3.47;3.10;;;;;;;;;;5060945;28;20488;-55
2023/12/03 14:36:25;;;;;;;3.40;2.97;;;;;;;;;;5076020;28;20066;-53
2023/12/03 14:38:52;;;;;;;5.00;3.25;;;;;;;;;;5076721;28;20089;-53
2023/12/03 14:41:18;;;;;;;4.40;3.40;;;;;;;;;;5070128;28;20434;-53